sensor_id;sensor_type;location;lat;lon;timestamp;P1;durP1;ratioP1;P2;durP2;ratioP2
35795;SDS011;21916;52.428;13.302;2022-11-15T00:01:54;67.93;;;39.22;;
35795;SDS011;21916;52.428;13.302;2022-11-15T00:04:39;75.57;;;40.33;;
35795;SDS011;21916;52.428;13.302;2022-11-15T00:07:24;76.70;;;40.38;;
35795;SDS011;21916;52.428;13.302;2022-11-15T00:10:08;68.75;;;40.38;;
35795;SDS011;21916;52.428;13.302;2022-11-15T00:12:53;75.25;;;41.42;;
35795;SDS011;21916;52.428;13.302;2022-11-15T00:15:39;70.45;;;41.35;;
35795;SDS011;21916;52.428;13.302;2022-11-15T00:18:24;73.03;;;42.90;;
35795;SDS011;21916;52.428;13.302;2022-11-15T00:21:10;78.40;;;41.22;;
35795;SDS011;21916;52.428;13.302;2022-11-15T00:23:56;72.10;;;40.83;;
35795;SDS011;21916;52.428;13.302;2022-11-15T00:26:41;70.72;;;41.20;;
35795;SDS011;21916;52.428;13.302;2022-11-15T00:29:26;67.72;;;38.90;;
35795;SDS011;21916;52.428;13.302;2022-11-15T00:32:11;71.88;;;40.67;;
35795;SDS011;21916;52.428;13.302;2022-11-15T00:34:56;73.03;;;40.28;;
35795;SDS011;21916;52.428;13.302;2022-11-15T00:37:40;68.43;;;38.97;;
35795;SDS011;21916;52.428;13.302;2022-11-15T00:40:25;68.70;;;41.33;;
35795;SDS011;21916;52.428;13.302;2022-11-15T00:43:10;64.00;;;37.65;;
35795;SDS011;21916;52.428;13.302;2022-11-15T00:45:54;72.05;;;40.47;;
35795;SDS011;21916;52.428;13.302;2022-11-15T00:48:39;78.22;;;40.85;;
35795;SDS011;21916;52.428;13.302;2022-11-15T00:51:23;78.45;;;44.58;;
35795;SDS011;21916;52.428;13.302;2022-11-15T00:54:08;78.32;;;43.88;;
35795;SDS011;21916;52.428;13.302;2022-11-15T00:56:52;76.65;;;41.17;;
35795;SDS011;21916;52.428;13.302;2022-11-15T00:59:37;81.97;;;40.55;;
35795;SDS011;21916;52.428;13.302;2022-11-15T01:02:22;77.97;;;43.08;;
35795;SDS011;21916;52.428;13.302;2022-11-15T01:05:06;78.97;;;43.70;;
35795;SDS011;21916;52.428;13.302;2022-11-15T01:07:52;77.07;;;41.40;;
35795;SDS011;21916;52.428;13.302;2022-11-15T01:10:46;76.32;;;40.80;;
35795;SDS011;21916;52.428;13.302;2022-11-15T01:13:31;76.28;;;41.10;;
35795;SDS011;21916;52.428;13.302;2022-11-15T01:16:17;76.95;;;42.90;;
35795;SDS011;21916;52.428;13.302;2022-11-15T01:19:02;77.93;;;43.10;;
35795;SDS011;21916;52.428;13.302;2022-11-15T01:21:50;82.07;;;41.72;;
35795;SDS011;21916;52.428;13.302;2022-11-15T01:24:35;78.03;;;42.20;;
35795;SDS011;21916;52.428;13.302;2022-11-15T01:27:23;77.82;;;44.13;;
35795;SDS011;21916;52.428;13.302;2022-11-15T01:30:08;81.15;;;41.42;;
35795;SDS011;21916;52.428;13.302;2022-11-15T01:32:54;84.13;;;45.65;;
35795;SDS011;21916;52.428;13.302;2022-11-15T01:35:39;77.82;;;42.83;;
35795;SDS011;21916;52.428;13.302;2022-11-15T01:38:23;82.13;;;43.20;;
35795;SDS011;21916;52.428;13.302;2022-11-15T01:41:17;76.88;;;42.70;;
35795;SDS011;21916;52.428;13.302;2022-11-15T01:47:34;76.38;;;43.40;;
35795;SDS011;21916;52.428;13.302;2022-11-15T01:50:25;79.25;;;43.17;;
35795;SDS011;21916;52.428;13.302;2022-11-15T01:53:13;79.03;;;43.42;;
35795;SDS011;21916;52.428;13.302;2022-11-15T01:56:01;77.63;;;40.75;;
35795;SDS011;21916;52.428;13.302;2022-11-15T01:58:49;78.38;;;44.33;;
35795;SDS011;21916;52.428;13.302;2022-11-15T02:01:35;79.03;;;43.30;;
35795;SDS011;21916;52.428;13.302;2022-11-15T02:04:21;71.35;;;39.83;;
35795;SDS011;21916;52.428;13.302;2022-11-15T02:07:16;77.32;;;41.88;;
35795;SDS011;21916;52.428;13.302;2022-11-15T02:10:16;86.07;;;45.00;;
35795;SDS011;21916;52.428;13.302;2022-11-15T02:13:03;76.25;;;43.60;;
35795;SDS011;21916;52.428;13.302;2022-11-15T02:36:54;79.55;;;43.05;;
35795;SDS011;21916;52.428;13.302;2022-11-15T02:39:49;79.13;;;42.43;;
35795;SDS011;21916;52.428;13.302;2022-11-15T02:42:36;76.00;;;42.47;;
35795;SDS011;21916;52.428;13.302;2022-11-15T02:45:51;77.15;;;42.67;;
35795;SDS011;21916;52.428;13.302;2022-11-15T02:48:42;72.85;;;40.92;;
35795;SDS011;21916;52.428;13.302;2022-11-15T02:51:28;81.25;;;43.00;;
35795;SDS011;21916;52.428;13.302;2022-11-15T02:54:14;82.00;;;45.28;;
35795;SDS011;21916;52.428;13.302;2022-11-15T02:57:04;78.63;;;42.45;;
35795;SDS011;21916;52.428;13.302;2022-11-15T03:06:27;74.90;;;41.35;;
35795;SDS011;21916;52.428;13.302;2022-11-15T03:09:25;77.30;;;41.33;;
35795;SDS011;21916;52.428;13.302;2022-11-15T03:16:08;78.57;;;41.22;;
35795;SDS011;21916;52.428;13.302;2022-11-15T03:19:13;77.72;;;40.33;;
35795;SDS011;21916;52.428;13.302;2022-11-15T03:22:06;79.15;;;41.65;;
35795;SDS011;21916;52.428;13.302;2022-11-15T03:24:56;83.82;;;43.55;;
35795;SDS011;21916;52.428;13.302;2022-11-15T03:27:46;82.18;;;42.08;;
35795;SDS011;21916;52.428;13.302;2022-11-15T03:30:36;78.72;;;42.47;;
35795;SDS011;21916;52.428;13.302;2022-11-15T03:33:23;81.65;;;42.15;;
35795;SDS011;21916;52.428;13.302;2022-11-15T03:36:08;81.95;;;41.83;;
35795;SDS011;21916;52.428;13.302;2022-11-15T03:38:53;78.15;;;42.25;;
35795;SDS011;21916;52.428;13.302;2022-11-15T03:41:43;82.22;;;43.95;;
35795;SDS011;21916;52.428;13.302;2022-11-15T03:44:56;76.88;;;41.08;;
35795;SDS011;21916;52.428;13.302;2022-11-15T03:47:51;78.32;;;44.33;;
35795;SDS011;21916;52.428;13.302;2022-11-15T03:50:42;83.80;;;44.00;;
35795;SDS011;21916;52.428;13.302;2022-11-15T03:53:28;76.78;;;41.92;;
35795;SDS011;21916;52.428;13.302;2022-11-15T03:56:14;82.70;;;43.95;;
35795;SDS011;21916;52.428;13.302;2022-11-15T03:58:59;74.07;;;41.75;;
35795;SDS011;21916;52.428;13.302;2022-11-15T04:01:45;81.45;;;43.65;;
35795;SDS011;21916;52.428;13.302;2022-11-15T04:04:29;82.82;;;43.60;;
35795;SDS011;21916;52.428;13.302;2022-11-15T04:07:14;78.03;;;42.13;;
35795;SDS011;21916;52.428;13.302;2022-11-15T04:09:59;86.07;;;43.20;;
35795;SDS011;21916;52.428;13.302;2022-11-15T04:12:46;82.30;;;45.33;;
35795;SDS011;21916;52.428;13.302;2022-11-15T04:15:31;80.93;;;43.92;;
35795;SDS011;21916;52.428;13.302;2022-11-15T04:18:16;74.00;;;41.42;;
35795;SDS011;21916;52.428;13.302;2022-11-15T04:21:00;75.13;;;40.55;;
35795;SDS011;21916;52.428;13.302;2022-11-15T04:24:04;77.87;;;41.87;;
35795;SDS011;21916;52.428;13.302;2022-11-15T04:26:49;73.32;;;41.15;;
35795;SDS011;21916;52.428;13.302;2022-11-15T04:29:33;77.03;;;39.60;;
35795;SDS011;21916;52.428;13.302;2022-11-15T04:32:18;75.97;;;39.60;;
35795;SDS011;21916;52.428;13.302;2022-11-15T04:35:02;77.68;;;40.92;;
35795;SDS011;21916;52.428;13.302;2022-11-15T04:37:47;73.10;;;39.05;;
35795;SDS011;21916;52.428;13.302;2022-11-15T04:40:32;75.25;;;40.38;;
35795;SDS011;21916;52.428;13.302;2022-11-15T04:43:17;75.10;;;41.60;;
35795;SDS011;21916;52.428;13.302;2022-11-15T04:46:02;75.18;;;39.78;;
35795;SDS011;21916;52.428;13.302;2022-11-15T04:48:46;70.82;;;39.80;;
35795;SDS011;21916;52.428;13.302;2022-11-15T04:51:31;78.43;;;41.83;;
35795;SDS011;21916;52.428;13.302;2022-11-15T04:54:15;74.20;;;41.63;;
35795;SDS011;21916;52.428;13.302;2022-11-15T04:57:01;71.63;;;38.38;;
35795;SDS011;21916;52.428;13.302;2022-11-15T04:59:45;73.47;;;37.83;;
35795;SDS011;21916;52.428;13.302;2022-11-15T05:02:30;72.55;;;41.58;;
35795;SDS011;21916;52.428;13.302;2022-11-15T05:08:19;65.10;;;35.97;;
35795;SDS011;21916;52.428;13.302;2022-11-15T05:11:04;65.93;;;37.70;;
35795;SDS011;21916;52.428;13.302;2022-11-15T05:13:49;65.97;;;36.83;;
35795;SDS011;21916;52.428;13.302;2022-11-15T05:16:34;75.95;;;40.55;;
35795;SDS011;21916;52.428;13.302;2022-11-15T05:19:19;71.68;;;37.78;;
35795;SDS011;21916;52.428;13.302;2022-11-15T05:22:04;70.97;;;40.38;;
35795;SDS011;21916;52.428;13.302;2022-11-15T05:24:49;68.57;;;38.22;;
35795;SDS011;21916;52.428;13.302;2022-11-15T05:27:34;75.30;;;40.97;;
35795;SDS011;21916;52.428;13.302;2022-11-15T05:30:18;72.93;;;38.35;;
35795;SDS011;21916;52.428;13.302;2022-11-15T05:33:03;72.50;;;38.83;;
35795;SDS011;21916;52.428;13.302;2022-11-15T05:35:54;76.72;;;40.58;;
35795;SDS011;21916;52.428;13.302;2022-11-15T05:38:45;67.95;;;36.97;;
35795;SDS011;21916;52.428;13.302;2022-11-15T05:41:31;70.57;;;38.83;;
35795;SDS011;21916;52.428;13.302;2022-11-15T05:44:17;72.70;;;38.10;;
35795;SDS011;21916;52.428;13.302;2022-11-15T05:47:05;74.25;;;39.20;;
35795;SDS011;21916;52.428;13.302;2022-11-15T05:49:52;76.05;;;40.70;;
35795;SDS011;21916;52.428;13.302;2022-11-15T05:52:38;69.32;;;38.15;;
35795;SDS011;21916;52.428;13.302;2022-11-15T05:55:22;72.35;;;38.88;;
35795;SDS011;21916;52.428;13.302;2022-11-15T05:58:07;69.65;;;38.22;;
35795;SDS011;21916;52.428;13.302;2022-11-15T06:00:51;73.22;;;38.97;;
35795;SDS011;21916;52.428;13.302;2022-11-15T06:03:37;68.68;;;38.90;;
35795;SDS011;21916;52.428;13.302;2022-11-15T06:06:22;70.32;;;37.83;;
35795;SDS011;21916;52.428;13.302;2022-11-15T06:09:07;69.47;;;38.15;;
35795;SDS011;21916;52.428;13.302;2022-11-15T06:11:51;72.60;;;37.50;;
35795;SDS011;21916;52.428;13.302;2022-11-15T06:14:36;71.80;;;38.42;;
35795;SDS011;21916;52.428;13.302;2022-11-15T06:17:20;72.22;;;38.97;;
35795;SDS011;21916;52.428;13.302;2022-11-15T06:20:05;69.05;;;38.05;;
35795;SDS011;21916;52.428;13.302;2022-11-15T06:22:49;71.40;;;39.25;;
35795;SDS011;21916;52.428;13.302;2022-11-15T06:25:34;71.95;;;38.80;;
35795;SDS011;21916;52.428;13.302;2022-11-15T06:28:19;67.93;;;37.92;;
35795;SDS011;21916;52.428;13.302;2022-11-15T06:31:04;70.25;;;37.90;;
35795;SDS011;21916;52.428;13.302;2022-11-15T06:33:57;68.00;;;37.72;;
35795;SDS011;21916;52.428;13.302;2022-11-15T06:36:42;65.55;;;35.72;;
35795;SDS011;21916;52.428;13.302;2022-11-15T06:39:27;69.68;;;37.55;;
35795;SDS011;21916;52.428;13.302;2022-11-15T06:42:11;63.70;;;37.28;;
35795;SDS011;21916;52.428;13.302;2022-11-15T06:44:56;70.22;;;37.92;;
35795;SDS011;21916;52.428;13.302;2022-11-15T06:47:44;68.30;;;37.17;;
35795;SDS011;21916;52.428;13.302;2022-11-15T06:50:30;68.88;;;39.22;;
35795;SDS011;21916;52.428;13.302;2022-11-15T06:53:15;75.15;;;38.60;;
35795;SDS011;21916;52.428;13.302;2022-11-15T06:56:03;69.22;;;39.88;;
35795;SDS011;21916;52.428;13.302;2022-11-15T06:58:50;68.07;;;38.00;;
35795;SDS011;21916;52.428;13.302;2022-11-15T07:01:34;72.60;;;38.75;;
35795;SDS011;21916;52.428;13.302;2022-11-15T07:04:19;70.90;;;37.45;;
35795;SDS011;21916;52.428;13.302;2022-11-15T07:07:03;69.78;;;38.88;;
35795;SDS011;21916;52.428;13.302;2022-11-15T07:09:48;73.38;;;38.58;;
35795;SDS011;21916;52.428;13.302;2022-11-15T07:12:33;66.65;;;37.78;;
35795;SDS011;21916;52.428;13.302;2022-11-15T07:15:19;67.95;;;37.55;;
35795;SDS011;21916;52.428;13.302;2022-11-15T07:18:05;77.13;;;38.22;;
35795;SDS011;21916;52.428;13.302;2022-11-15T07:20:51;68.28;;;37.60;;
35795;SDS011;21916;52.428;13.302;2022-11-15T07:23:35;70.43;;;39.03;;
35795;SDS011;21916;52.428;13.302;2022-11-15T07:26:24;66.90;;;37.03;;
35795;SDS011;21916;52.428;13.302;2022-11-15T07:29:09;68.78;;;36.03;;
35795;SDS011;21916;52.428;13.302;2022-11-15T07:31:54;67.22;;;35.60;;
35795;SDS011;21916;52.428;13.302;2022-11-15T07:34:38;64.85;;;36.42;;
35795;SDS011;21916;52.428;13.302;2022-11-15T07:37:23;65.10;;;36.67;;
35795;SDS011;21916;52.428;13.302;2022-11-15T07:40:08;61.38;;;36.00;;
35795;SDS011;21916;52.428;13.302;2022-11-15T07:42:58;59.85;;;34.97;;
35795;SDS011;21916;52.428;13.302;2022-11-15T07:45:44;59.42;;;35.92;;
35795;SDS011;21916;52.428;13.302;2022-11-15T07:48:29;64.03;;;35.85;;
35795;SDS011;21916;52.428;13.302;2022-11-15T07:51:14;57.47;;;34.92;;
35795;SDS011;21916;52.428;13.302;2022-11-15T07:54:00;54.88;;;33.97;;
35795;SDS011;21916;52.428;13.302;2022-11-15T07:56:45;62.63;;;36.67;;
35795;SDS011;21916;52.428;13.302;2022-11-15T07:59:30;57.00;;;33.65;;
35795;SDS011;21916;52.428;13.302;2022-11-15T08:02:15;52.95;;;32.83;;
35795;SDS011;21916;52.428;13.302;2022-11-15T08:05:01;52.72;;;34.42;;
35795;SDS011;21916;52.428;13.302;2022-11-15T08:07:46;57.67;;;33.05;;
35795;SDS011;21916;52.428;13.302;2022-11-15T08:10:31;54.63;;;33.72;;
35795;SDS011;21916;52.428;13.302;2022-11-15T08:13:16;51.67;;;31.98;;
35795;SDS011;21916;52.428;13.302;2022-11-15T08:16:04;50.35;;;32.30;;
35795;SDS011;21916;52.428;13.302;2022-11-15T08:18:49;50.83;;;31.20;;
35795;SDS011;21916;52.428;13.302;2022-11-15T08:21:36;49.35;;;31.67;;
35795;SDS011;21916;52.428;13.302;2022-11-15T08:24:21;49.80;;;31.63;;
35795;SDS011;21916;52.428;13.302;2022-11-15T08:27:06;50.60;;;31.20;;
35795;SDS011;21916;52.428;13.302;2022-11-15T08:29:58;45.40;;;29.50;;
35795;SDS011;21916;52.428;13.302;2022-11-15T08:32:43;45.10;;;29.38;;
35795;SDS011;21916;52.428;13.302;2022-11-15T08:35:28;45.90;;;30.27;;
35795;SDS011;21916;52.428;13.302;2022-11-15T08:38:13;50.15;;;31.48;;
35795;SDS011;21916;52.428;13.302;2022-11-15T08:41:04;45.55;;;28.42;;
35795;SDS011;21916;52.428;13.302;2022-11-15T08:43:49;47.67;;;28.17;;
35795;SDS011;21916;52.428;13.302;2022-11-15T08:46:34;45.03;;;27.92;;
35795;SDS011;21916;52.428;13.302;2022-11-15T08:49:18;41.92;;;27.38;;
35795;SDS011;21916;52.428;13.302;2022-11-15T08:52:03;40.47;;;28.23;;
35795;SDS011;21916;52.428;13.302;2022-11-15T08:54:48;42.25;;;27.92;;
35795;SDS011;21916;52.428;13.302;2022-11-15T08:57:32;50.95;;;27.25;;
35795;SDS011;21916;52.428;13.302;2022-11-15T09:00:17;40.58;;;25.92;;
35795;SDS011;21916;52.428;13.302;2022-11-15T09:03:04;39.20;;;25.23;;
35795;SDS011;21916;52.428;13.302;2022-11-15T09:05:53;39.30;;;24.80;;
35795;SDS011;21916;52.428;13.302;2022-11-15T09:08:39;37.53;;;26.13;;
35795;SDS011;21916;52.428;13.302;2022-11-15T09:11:24;37.35;;;23.45;;
35795;SDS011;21916;52.428;13.302;2022-11-15T09:14:10;37.25;;;25.83;;
35795;SDS011;21916;52.428;13.302;2022-11-15T09:16:55;37.38;;;25.38;;
35795;SDS011;21916;52.428;13.302;2022-11-15T09:19:40;36.70;;;24.83;;
35795;SDS011;21916;52.428;13.302;2022-11-15T09:22:24;41.47;;;23.48;;
35795;SDS011;21916;52.428;13.302;2022-11-15T09:25:09;32.78;;;22.73;;
35795;SDS011;21916;52.428;13.302;2022-11-15T09:27:54;42.08;;;24.05;;
35795;SDS011;21916;52.428;13.302;2022-11-15T09:30:39;34.53;;;22.63;;
35795;SDS011;21916;52.428;13.302;2022-11-15T09:33:23;34.80;;;22.25;;
35795;SDS011;21916;52.428;13.302;2022-11-15T09:36:08;36.50;;;23.15;;
35795;SDS011;21916;52.428;13.302;2022-11-15T09:38:53;29.83;;;21.02;;
35795;SDS011;21916;52.428;13.302;2022-11-15T09:41:43;33.55;;;22.20;;
35795;SDS011;21916;52.428;13.302;2022-11-15T09:51:12;29.73;;;20.73;;
35795;SDS011;21916;52.428;13.302;2022-11-15T09:56:49;24.63;;;18.52;;
35795;SDS011;21916;52.428;13.302;2022-11-15T10:04:33;22.15;;;16.38;;
35795;SDS011;21916;52.428;13.302;2022-11-15T10:07:06;23.60;;;17.23;;
35795;SDS011;21916;52.428;13.302;2022-11-15T10:09:51;19.00;;;15.73;;
35795;SDS011;21916;52.428;13.302;2022-11-15T10:12:28;21.35;;;16.08;;
35795;SDS011;21916;52.428;13.302;2022-11-15T10:14:58;22.15;;;15.30;;
35795;SDS011;21916;52.428;13.302;2022-11-15T10:17:53;19.58;;;15.50;;
35795;SDS011;21916;52.428;13.302;2022-11-15T10:20:23;20.33;;;16.02;;
35795;SDS011;21916;52.428;13.302;2022-11-15T10:23:01;19.52;;;15.48;;
35795;SDS011;21916;52.428;13.302;2022-11-15T10:25:32;19.05;;;15.80;;
35795;SDS011;21916;52.428;13.302;2022-11-15T10:28:00;18.92;;;15.55;;
35795;SDS011;21916;52.428;13.302;2022-11-15T10:30:41;20.10;;;15.85;;
35795;SDS011;21916;52.428;13.302;2022-11-15T10:36:32;18.90;;;14.43;;
35795;SDS011;21916;52.428;13.302;2022-11-15T10:41:37;16.83;;;15.02;;
35795;SDS011;21916;52.428;13.302;2022-11-15T10:46:43;16.98;;;14.40;;
35795;SDS011;21916;52.428;13.302;2022-11-15T10:49:14;18.98;;;14.70;;
35795;SDS011;21916;52.428;13.302;2022-11-15T10:54:21;16.83;;;14.82;;
35795;SDS011;21916;52.428;13.302;2022-11-15T10:56:49;16.48;;;13.98;;
35795;SDS011;21916;52.428;13.302;2022-11-15T10:59:26;15.52;;;13.80;;
35795;SDS011;21916;52.428;13.302;2022-11-15T11:01:55;16.05;;;13.50;;
35795;SDS011;21916;52.428;13.302;2022-11-15T11:04:22;15.75;;;14.05;;
35795;SDS011;21916;52.428;13.302;2022-11-15T11:09:28;14.68;;;13.07;;
35795;SDS011;21916;52.428;13.302;2022-11-15T11:12:04;14.20;;;12.70;;
35795;SDS011;21916;52.428;13.302;2022-11-15T11:14:35;14.65;;;12.68;;
35795;SDS011;21916;52.428;13.302;2022-11-15T11:22:30;13.43;;;12.00;;
35795;SDS011;21916;52.428;13.302;2022-11-15T11:25:07;15.48;;;13.13;;
35795;SDS011;21916;52.428;13.302;2022-11-15T11:27:45;15.35;;;12.57;;
35795;SDS011;21916;52.428;13.302;2022-11-15T11:30:41;16.27;;;12.55;;
35795;SDS011;21916;52.428;13.302;2022-11-15T11:49:34;13.00;;;11.27;;
35795;SDS011;21916;52.428;13.302;2022-11-15T11:57:33;11.70;;;9.63;;
35795;SDS011;21916;52.428;13.302;2022-11-15T12:00:21;151.43;;;24.77;;
35795;SDS011;21916;52.428;13.302;2022-11-15T12:03:35;12.88;;;8.63;;
35795;SDS011;21916;52.428;13.302;2022-11-15T12:06:00;91.88;;;17.67;;
35795;SDS011;21916;52.428;13.302;2022-11-15T12:08:48;10.77;;;8.43;;
35795;SDS011;21916;52.428;13.302;2022-11-15T12:11:29;11.77;;;8.73;;
35795;SDS011;21916;52.428;13.302;2022-11-15T12:14:31;10.20;;;8.63;;
35795;SDS011;21916;52.428;13.302;2022-11-15T12:17:13;9.45;;;8.45;;
35795;SDS011;21916;52.428;13.302;2022-11-15T12:19:41;9.25;;;7.93;;
35795;SDS011;21916;52.428;13.302;2022-11-15T12:22:21;10.02;;;8.27;;
35795;SDS011;21916;52.428;13.302;2022-11-15T12:28:14;9.27;;;7.78;;
35795;SDS011;21916;52.428;13.302;2022-11-15T12:31:12;9.30;;;7.78;;
35795;SDS011;21916;52.428;13.302;2022-11-15T12:33:47;9.70;;;8.70;;
35795;SDS011;21916;52.428;13.302;2022-11-15T13:02:26;8.60;;;7.68;;
35795;SDS011;21916;52.428;13.302;2022-11-15T13:17:43;10.65;;;6.78;;
35795;SDS011;21916;52.428;13.302;2022-11-15T13:30:56;8.95;;;6.40;;
35795;SDS011;21916;52.428;13.302;2022-11-15T13:36:13;9.15;;;6.95;;
35795;SDS011;21916;52.428;13.302;2022-11-15T13:38:43;8.75;;;7.45;;
35795;SDS011;21916;52.428;13.302;2022-11-15T13:41:11;7.82;;;6.60;;
35795;SDS011;21916;52.428;13.302;2022-11-15T13:43:47;9.13;;;6.50;;
35795;SDS011;21916;52.428;13.302;2022-11-15T13:46:22;8.50;;;7.20;;
35795;SDS011;21916;52.428;13.302;2022-11-15T13:49:00;11.10;;;7.43;;
35795;SDS011;21916;52.428;13.302;2022-11-15T13:51:33;9.30;;;7.97;;
35795;SDS011;21916;52.428;13.302;2022-11-15T13:54:02;11.63;;;8.05;;
35795;SDS011;21916;52.428;13.302;2022-11-15T13:56:31;9.48;;;7.72;;
35795;SDS011;21916;52.428;13.302;2022-11-15T13:58:59;10.60;;;8.02;;
35795;SDS011;21916;52.428;13.302;2022-11-15T14:01:27;10.23;;;8.00;;
35795;SDS011;21916;52.428;13.302;2022-11-15T14:03:57;10.63;;;8.57;;
35795;SDS011;21916;52.428;13.302;2022-11-15T14:06:25;22.40;;;10.63;;
35795;SDS011;21916;52.428;13.302;2022-11-15T14:11:29;16.25;;;9.90;;
35795;SDS011;21916;52.428;13.302;2022-11-15T14:16:35;13.13;;;10.35;;
35795;SDS011;21916;52.428;13.302;2022-11-15T14:19:03;12.68;;;11.38;;
35795;SDS011;21916;52.428;13.302;2022-11-15T14:21:31;14.20;;;10.65;;
35795;SDS011;21916;52.428;13.302;2022-11-15T14:24:17;13.85;;;10.98;;
35795;SDS011;21916;52.428;13.302;2022-11-15T14:26:47;20.20;;;11.63;;
35795;SDS011;21916;52.428;13.302;2022-11-15T14:29:26;14.77;;;12.00;;
35795;SDS011;21916;52.428;13.302;2022-11-15T14:34:45;22.80;;;12.90;;
35795;SDS011;21916;52.428;13.302;2022-11-15T14:37:30;18.08;;;12.55;;
35795;SDS011;21916;52.428;13.302;2022-11-15T14:40:01;18.30;;;12.65;;
35795;SDS011;21916;52.428;13.302;2022-11-15T14:42:28;20.17;;;14.82;;
35795;SDS011;21916;52.428;13.302;2022-11-15T14:44:54;18.58;;;13.18;;
35795;SDS011;21916;52.428;13.302;2022-11-15T14:47:20;24.63;;;13.00;;
35795;SDS011;21916;52.428;13.302;2022-11-15T14:49:46;26.70;;;14.32;;
35795;SDS011;21916;52.428;13.302;2022-11-15T14:54:55;43.63;;;15.05;;
35795;SDS011;21916;52.428;13.302;2022-11-15T14:57:25;82.95;;;22.08;;
35795;SDS011;21916;52.428;13.302;2022-11-15T14:59:55;32.75;;;15.45;;
35795;SDS011;21916;52.428;13.302;2022-11-15T15:02:23;35.08;;;15.45;;
35795;SDS011;21916;52.428;13.302;2022-11-15T15:04:50;23.63;;;14.88;;
35795;SDS011;21916;52.428;13.302;2022-11-15T15:07:17;25.17;;;14.88;;
35795;SDS011;21916;52.428;13.302;2022-11-15T15:09:43;20.17;;;14.05;;
35795;SDS011;21916;52.428;13.302;2022-11-15T15:14:42;24.90;;;14.90;;
35795;SDS011;21916;52.428;13.302;2022-11-15T15:17:08;25.40;;;14.18;;
35795;SDS011;21916;52.428;13.302;2022-11-15T15:19:33;22.60;;;14.65;;
35795;SDS011;21916;52.428;13.302;2022-11-15T15:21:59;27.73;;;14.95;;
35795;SDS011;21916;52.428;13.302;2022-11-15T15:24:25;23.23;;;16.25;;
35795;SDS011;21916;52.428;13.302;2022-11-15T15:26:51;26.92;;;15.48;;
35795;SDS011;21916;52.428;13.302;2022-11-15T15:29:17;32.72;;;15.20;;
35795;SDS011;21916;52.428;13.302;2022-11-15T15:31:43;28.98;;;15.52;;
35795;SDS011;21916;52.428;13.302;2022-11-15T15:34:09;29.67;;;15.32;;
35795;SDS011;21916;52.428;13.302;2022-11-15T15:36:35;22.98;;;15.02;;
35795;SDS011;21916;52.428;13.302;2022-11-15T15:39:00;22.27;;;16.00;;
35795;SDS011;21916;52.428;13.302;2022-11-15T15:41:26;22.20;;;15.07;;
35795;SDS011;21916;52.428;13.302;2022-11-15T15:43:52;24.92;;;17.00;;
35795;SDS011;21916;52.428;13.302;2022-11-15T15:46:19;24.63;;;16.13;;
35795;SDS011;21916;52.428;13.302;2022-11-15T15:48:45;30.52;;;15.90;;
35795;SDS011;21916;52.428;13.302;2022-11-15T15:51:11;24.25;;;16.17;;
35795;SDS011;21916;52.428;13.302;2022-11-15T15:53:38;24.25;;;16.48;;
35795;SDS011;21916;52.428;13.302;2022-11-15T15:56:07;24.23;;;17.15;;
35795;SDS011;21916;52.428;13.302;2022-11-15T15:58:34;26.45;;;16.63;;
35795;SDS011;21916;52.428;13.302;2022-11-15T16:01:00;22.70;;;15.93;;
35795;SDS011;21916;52.428;13.302;2022-11-15T16:03:26;26.67;;;17.13;;
35795;SDS011;21916;52.428;13.302;2022-11-15T16:05:52;21.35;;;15.82;;
35795;SDS011;21916;52.428;13.302;2022-11-15T16:08:20;28.33;;;17.08;;
35795;SDS011;21916;52.428;13.302;2022-11-15T16:10:47;24.08;;;16.10;;
35795;SDS011;21916;52.428;13.302;2022-11-15T16:13:14;24.05;;;15.45;;
35795;SDS011;21916;52.428;13.302;2022-11-15T16:15:40;23.27;;;16.92;;
35795;SDS011;21916;52.428;13.302;2022-11-15T16:18:09;25.65;;;15.93;;
35795;SDS011;21916;52.428;13.302;2022-11-15T16:20:41;26.17;;;16.15;;
35795;SDS011;21916;52.428;13.302;2022-11-15T16:23:11;25.92;;;15.73;;
35795;SDS011;21916;52.428;13.302;2022-11-15T16:25:45;24.10;;;16.48;;
35795;SDS011;21916;52.428;13.302;2022-11-15T16:28:17;23.40;;;17.05;;
35795;SDS011;21916;52.428;13.302;2022-11-15T16:30:45;22.02;;;15.43;;
35795;SDS011;21916;52.428;13.302;2022-11-15T16:33:11;24.10;;;16.23;;
35795;SDS011;21916;52.428;13.302;2022-11-15T16:35:37;24.50;;;16.73;;
35795;SDS011;21916;52.428;13.302;2022-11-15T16:38:03;29.55;;;17.70;;
35795;SDS011;21916;52.428;13.302;2022-11-15T16:40:29;26.23;;;16.88;;
35795;SDS011;21916;52.428;13.302;2022-11-15T16:43:00;29.10;;;17.30;;
35795;SDS011;21916;52.428;13.302;2022-11-15T16:45:27;25.83;;;18.10;;
35795;SDS011;21916;52.428;13.302;2022-11-15T16:47:54;28.60;;;18.08;;
35795;SDS011;21916;52.428;13.302;2022-11-15T16:50:25;28.63;;;19.40;;
35795;SDS011;21916;52.428;13.302;2022-11-15T16:52:53;26.58;;;18.45;;
35795;SDS011;21916;52.428;13.302;2022-11-15T16:55:24;28.88;;;19.17;;
35795;SDS011;21916;52.428;13.302;2022-11-15T16:57:52;27.17;;;19.95;;
35795;SDS011;21916;52.428;13.302;2022-11-15T17:00:19;30.25;;;19.95;;
35795;SDS011;21916;52.428;13.302;2022-11-15T17:02:47;26.25;;;18.63;;
35795;SDS011;21916;52.428;13.302;2022-11-15T17:05:14;28.20;;;20.42;;
35795;SDS011;21916;52.428;13.302;2022-11-15T17:07:42;30.83;;;18.58;;
35795;SDS011;21916;52.428;13.302;2022-11-15T17:10:08;30.60;;;20.33;;
35795;SDS011;21916;52.428;13.302;2022-11-15T17:12:36;33.78;;;20.85;;
35795;SDS011;21916;52.428;13.302;2022-11-15T17:15:03;30.42;;;21.48;;
35795;SDS011;21916;52.428;13.302;2022-11-15T17:17:30;30.17;;;20.27;;
35795;SDS011;21916;52.428;13.302;2022-11-15T17:19:56;32.72;;;21.02;;
35795;SDS011;21916;52.428;13.302;2022-11-15T17:22:22;32.70;;;20.75;;
35795;SDS011;21916;52.428;13.302;2022-11-15T17:24:49;30.40;;;21.30;;
35795;SDS011;21916;52.428;13.302;2022-11-15T17:27:15;33.90;;;22.33;;
35795;SDS011;21916;52.428;13.302;2022-11-15T17:29:41;34.33;;;21.20;;
35795;SDS011;21916;52.428;13.302;2022-11-15T17:32:07;34.67;;;22.08;;
35795;SDS011;21916;52.428;13.302;2022-11-15T17:34:34;31.90;;;20.67;;
35795;SDS011;21916;52.428;13.302;2022-11-15T17:36:59;29.77;;;20.83;;
35795;SDS011;21916;52.428;13.302;2022-11-15T17:39:25;33.83;;;21.92;;
35795;SDS011;21916;52.428;13.302;2022-11-15T17:41:51;31.45;;;20.90;;
35795;SDS011;21916;52.428;13.302;2022-11-15T17:44:17;34.90;;;22.95;;
35795;SDS011;21916;52.428;13.302;2022-11-15T17:46:43;37.08;;;22.80;;
35795;SDS011;21916;52.428;13.302;2022-11-15T17:49:09;41.22;;;25.77;;
35795;SDS011;21916;52.428;13.302;2022-11-15T17:51:35;38.75;;;24.40;;
35795;SDS011;21916;52.428;13.302;2022-11-15T17:54:01;43.00;;;26.35;;
35795;SDS011;21916;52.428;13.302;2022-11-15T17:56:27;40.85;;;26.55;;
35795;SDS011;21916;52.428;13.302;2022-11-15T17:58:57;40.75;;;27.15;;
35795;SDS011;21916;52.428;13.302;2022-11-15T18:01:28;41.53;;;28.60;;
35795;SDS011;21916;52.428;13.302;2022-11-15T18:03:56;40.70;;;28.52;;
35795;SDS011;21916;52.428;13.302;2022-11-15T18:06:25;40.00;;;28.92;;